createdAt,value
2018-05-31T00:00:46.837Z,5.47
2018-05-31T00:03:14.287Z,5.80
2018-05-31T00:05:41.721Z,5.90
2018-05-31T00:08:09.175Z,5.90
2018-05-31T00:10:37.375Z,5.57
2018-05-31T00:13:05.589Z,6.10
2018-05-31T00:15:33.022Z,5.73
2018-05-31T00:18:00.465Z,5.83
2018-05-31T00:20:27.898Z,6.10
2018-05-31T00:22:55.363Z,6.60
2018-05-31T00:25:22.798Z,6.50
2018-05-31T00:27:50.239Z,5.67
2018-05-31T00:30:18.458Z,6.30
2018-05-31T00:32:45.890Z,6.60
2018-05-31T00:35:13.344Z,6.20
2018-05-31T00:37:40.778Z,6.73
2018-05-31T00:40:08.986Z,5.90
2018-05-31T00:42:37.191Z,6.23
2018-05-31T00:45:05.410Z,6.20
2018-05-31T00:47:32.845Z,6.40
2018-05-31T00:50:00.293Z,5.87
2018-05-31T00:52:27.729Z,4.93
2018-05-31T00:54:55.946Z,5.43
2018-05-31T00:57:23.382Z,6.00
2018-05-31T00:59:50.828Z,5.30
2018-05-31T01:02:18.269Z,5.33
2018-05-31T01:04:46.470Z,5.50
2018-05-31T01:07:14.678Z,5.50
2018-05-31T01:09:42.118Z,5.00
2018-05-31T01:12:09.559Z,4.97
2018-05-31T01:14:37.002Z,5.33
2018-05-31T01:17:05.207Z,5.43
2018-05-31T01:19:33.420Z,6.00
2018-05-31T01:22:01.620Z,5.60
2018-05-31T01:24:29.073Z,5.60
2018-05-31T01:26:56.506Z,5.60
2018-05-31T01:29:23.946Z,5.87
2018-05-31T01:31:52.153Z,5.60
2018-05-31T01:34:20.319Z,6.37
2018-05-31T01:36:47.757Z,5.80
2018-05-31T01:39:17.153Z,5.63
2018-05-31T01:41:44.595Z,5.67
2018-05-31T01:44:12.034Z,4.73
2018-05-31T01:46:39.480Z,5.07
2018-05-31T01:49:07.672Z,4.93
2018-05-31T01:51:35.115Z,5.13
2018-05-31T01:54:03.392Z,5.40
2018-05-31T01:56:30.836Z,5.10
2018-05-31T01:58:58.273Z,4.60
2018-05-31T02:01:25.718Z,3.83
2018-05-31T02:03:53.914Z,3.97
2018-05-31T02:06:22.125Z,4.37
2018-05-31T02:08:49.558Z,5.13
2018-05-31T02:11:17.004Z,4.60
2018-05-31T02:13:44.434Z,5.30
2018-05-31T02:16:11.874Z,5.50
2018-05-31T02:18:39.311Z,5.07
2018-05-31T02:21:07.515Z,5.40
2018-05-31T02:23:35.718Z,5.10
2018-05-31T02:26:03.149Z,5.67
2018-05-31T02:28:30.591Z,5.73
2018-05-31T02:30:58.028Z,5.43
2018-05-31T02:33:25.470Z,4.90
2018-05-31T02:35:52.906Z,5.23
2018-05-31T02:38:21.109Z,4.70
2018-05-31T02:40:49.321Z,4.27
2018-05-31T02:43:16.762Z,4.43
2018-05-31T02:45:44.195Z,4.30
2018-05-31T02:48:11.633Z,4.40
2018-05-31T02:50:39.074Z,5.17
2018-05-31T02:53:06.536Z,4.40
2018-05-31T02:55:33.970Z,4.87
2018-05-31T02:58:01.408Z,5.00
2018-05-31T03:00:28.855Z,5.00
2018-05-31T03:02:57.049Z,4.80
2018-05-31T03:05:25.259Z,4.70
2018-05-31T03:07:53.463Z,4.80
2018-05-31T03:10:20.902Z,4.40
2018-05-31T03:12:48.333Z,4.73
2018-05-31T03:15:15.779Z,4.37
2018-05-31T03:17:43.213Z,5.23
2018-05-31T03:20:10.654Z,6.00
2018-05-31T03:22:38.859Z,5.90
2018-05-31T03:25:06.307Z,6.30
2018-05-31T03:27:33.742Z,5.67
2018-05-31T03:30:01.197Z,5.60
2018-05-31T03:32:29.386Z,6.20
2018-05-31T03:34:57.593Z,5.73
2018-05-31T03:37:28.747Z,6.33
2018-05-31T03:39:56.189Z,6.37
2018-05-31T03:42:23.630Z,5.80
2018-05-31T03:44:51.082Z,5.10
2018-05-31T03:47:18.565Z,5.20
2018-05-31T03:49:45.962Z,5.53
2018-05-31T03:52:14.180Z,5.63
2018-05-31T03:54:41.608Z,6.43
2018-05-31T03:57:09.053Z,6.13
2018-05-31T03:59:36.488Z,6.20
2018-05-31T04:02:03.930Z,6.10
2018-05-31T04:04:31.375Z,6.17
2018-05-31T04:06:59.580Z,5.43
2018-05-31T04:09:27.010Z,6.10
2018-05-31T04:11:54.453Z,6.00
2018-05-31T04:14:21.885Z,5.73
2018-05-31T04:16:49.326Z,5.73
2018-05-31T04:19:16.780Z,7.27
2018-05-31T04:21:44.985Z,6.30
2018-05-31T04:24:12.415Z,6.43
2018-05-31T04:26:39.862Z,7.50
2018-05-31T04:29:07.289Z,6.43
2018-05-31T04:31:34.734Z,7.63
2018-05-31T04:34:02.933Z,7.83
2018-05-31T04:36:30.391Z,6.50
2018-05-31T04:38:57.826Z,6.50
2018-05-31T04:41:25.262Z,7.40
2018-05-31T04:43:52.714Z,7.85
2018-05-31T04:46:20.163Z,8.00
2018-05-31T04:48:47.613Z,9.55
2018-05-31T04:51:15.054Z,8.68
2018-05-31T04:53:43.279Z,8.90
2018-05-31T04:56:10.731Z,8.90
2018-05-31T04:58:38.950Z,7.75
2018-05-31T05:01:06.435Z,7.65
2018-05-31T05:03:33.877Z,8.02
2018-05-31T05:06:01.310Z,7.95
2018-05-31T05:08:28.757Z,8.10
2018-05-31T05:10:56.967Z,8.20
2018-05-31T05:13:24.415Z,7.82
2018-05-31T05:15:51.858Z,7.60
2018-05-31T05:18:19.304Z,7.50
2018-05-31T05:20:47.514Z,7.40
2018-05-31T05:23:14.963Z,6.80
2018-05-31T05:25:43.179Z,6.57
2018-05-31T05:28:11.384Z,6.40
2018-05-31T05:30:38.818Z,5.90
2018-05-31T05:33:06.270Z,5.70
2018-05-31T05:35:33.701Z,5.70
2018-05-31T05:38:01.911Z,5.80
2018-05-31T05:40:29.353Z,6.25
2018-05-31T05:42:56.786Z,5.65
2018-05-31T05:45:24.225Z,6.20
2018-05-31T05:47:51.667Z,6.60
2018-05-31T05:50:19.107Z,5.27
2018-05-31T05:52:47.319Z,5.50
2018-05-31T05:55:15.528Z,4.45
2018-05-31T05:57:42.969Z,5.15
2018-05-31T06:00:10.420Z,4.90
2018-05-31T06:02:37.890Z,4.70
2018-05-31T06:05:05.331Z,5.15
2018-05-31T06:07:33.535Z,4.43
2018-05-31T06:10:00.997Z,4.82
2018-05-31T06:12:28.410Z,4.37
2018-05-31T06:14:56.630Z,4.60
2018-05-31T06:17:24.837Z,4.22
2018-05-31T06:19:53.133Z,4.00
2018-05-31T06:22:20.521Z,4.55
2018-05-31T06:24:47.961Z,4.03
2018-05-31T06:27:15.418Z,4.32
2018-05-31T06:29:43.627Z,4.57
2018-05-31T06:32:11.838Z,3.90
2018-05-31T06:34:40.048Z,4.30
2018-05-31T06:37:08.282Z,4.20
2018-05-31T06:39:36.466Z,4.43
2018-05-31T06:42:03.925Z,4.45
2018-05-31T06:44:32.138Z,4.20
2018-05-31T06:46:59.595Z,4.32
2018-05-31T06:49:27.039Z,4.57
2018-05-31T06:51:54.497Z,4.57
2018-05-31T06:54:21.932Z,4.05
2018-05-31T06:56:49.383Z,3.87
2018-05-31T06:59:16.813Z,4.55
2018-05-31T07:01:44.258Z,4.28
2018-05-31T07:04:12.475Z,3.90
2018-05-31T07:06:39.923Z,4.40
2018-05-31T07:09:08.135Z,4.50
2018-05-31T07:11:36.350Z,4.70
2018-05-31T07:14:03.781Z,3.90
2018-05-31T07:16:31.231Z,4.10
2018-05-31T07:18:58.663Z,4.47
2018-05-31T07:21:26.126Z,3.85
2018-05-31T07:23:53.578Z,4.50
2018-05-31T07:26:21.021Z,4.35
2018-05-31T07:28:49.226Z,4.03
2018-05-31T07:31:17.425Z,4.30
2018-05-31T07:33:45.642Z,4.65
2018-05-31T07:36:13.083Z,4.30
2018-05-31T07:38:40.552Z,4.53
2018-05-31T07:41:07.958Z,4.18
2018-05-31T07:43:35.398Z,4.40
2018-05-31T07:46:02.848Z,4.25
2018-05-31T07:48:31.055Z,4.40
2018-05-31T07:50:58.485Z,5.30
2018-05-31T07:53:25.930Z,4.37
2018-05-31T07:55:53.374Z,4.20
2018-05-31T07:58:21.665Z,4.35
2018-05-31T08:00:49.083Z,4.90
2018-05-31T08:03:16.531Z,4.93
2018-05-31T08:05:44.787Z,5.15
2018-05-31T08:08:12.201Z,5.45
2018-05-31T08:10:39.650Z,5.62
2018-05-31T08:13:07.090Z,6.10
2018-05-31T08:15:35.314Z,6.60
2018-05-31T08:18:02.762Z,6.43
2018-05-31T08:20:30.980Z,5.80
2018-05-31T08:22:59.185Z,6.70
2018-05-31T08:25:26.629Z,6.87
2018-05-31T08:27:54.061Z,6.40
2018-05-31T08:30:21.502Z,6.53
2018-05-31T08:32:48.943Z,7.07
2018-05-31T08:35:16.395Z,7.00
2018-05-31T08:37:43.871Z,7.60
2018-05-31T08:40:11.306Z,7.80
2018-05-31T08:42:39.513Z,7.62
2018-05-31T08:45:07.726Z,7.90
2018-05-31T08:47:35.943Z,6.53
2018-05-31T08:50:03.407Z,6.65
2018-05-31T08:52:31.627Z,7.20
2018-05-31T08:54:59.093Z,7.55
2018-05-31T08:57:27.391Z,8.10
2018-05-31T08:59:54.758Z,7.70
2018-05-31T09:02:22.965Z,8.50
2018-05-31T09:04:50.420Z,7.90
2018-05-31T09:07:17.872Z,7.47
2018-05-31T09:09:45.310Z,7.80
2018-05-31T09:12:12.757Z,7.73
2018-05-31T09:14:40.198Z,8.13
2018-05-31T09:17:08.423Z,8.13
2018-05-31T09:19:35.858Z,8.68
2018-05-31T09:22:03.300Z,8.23
2018-05-31T09:24:30.730Z,7.43
2018-05-31T09:26:58.952Z,8.07
2018-05-31T09:29:26.387Z,6.97
2018-05-31T09:31:53.834Z,7.72
2018-05-31T09:34:21.280Z,8.57
2018-05-31T09:36:48.733Z,7.97
2018-05-31T09:39:16.168Z,6.62
2018-05-31T09:41:43.615Z,7.50
2018-05-31T09:44:11.059Z,7.00
2018-05-31T09:46:39.301Z,9.00
2018-05-31T09:49:06.736Z,9.10
2018-05-31T10:50:26.773Z,8.07
2018-05-31T10:52:54.213Z,9.20
2018-05-31T10:55:21.673Z,9.13
2018-05-31T10:57:49.110Z,9.37
2018-05-31T11:00:16.545Z,6.90
2018-05-31T11:02:43.977Z,7.70
2018-05-31T11:05:11.421Z,8.20
2018-05-31T11:07:38.858Z,8.10
2018-05-31T11:10:06.321Z,8.17
2018-05-31T11:12:33.750Z,7.50
2018-05-31T11:15:01.244Z,8.10
2018-05-31T11:17:28.630Z,6.97
2018-05-31T11:19:56.074Z,7.97
2018-05-31T11:22:23.518Z,8.17
2018-05-31T11:24:50.958Z,8.87
2018-05-31T11:27:19.175Z,8.00
2018-05-31T11:29:46.625Z,8.40
2018-05-31T11:32:14.851Z,8.47
2018-05-31T11:34:42.311Z,8.30
2018-05-31T12:04:09.781Z,8.02
2018-05-31T12:06:37.223Z,7.70
2018-05-31T12:09:05.391Z,8.57
2018-05-31T12:11:33.595Z,7.43
2018-05-31T12:14:01.043Z,6.70
2018-05-31T12:16:28.481Z,6.53
2018-05-31T12:18:56.689Z,7.90
2018-05-31T12:21:24.125Z,7.73
2018-05-31T12:23:51.566Z,7.77
2018-05-31T12:26:19.008Z,7.50
2018-05-31T12:28:47.227Z,7.50
2018-05-31T12:31:14.657Z,8.43
2018-05-31T12:33:42.105Z,6.80
2018-05-31T12:36:09.539Z,7.40
2018-05-31T12:38:37.006Z,7.30
2018-05-31T12:41:04.442Z,6.50
2018-05-31T12:43:31.882Z,6.97
2018-05-31T12:45:59.321Z,7.13
2018-05-31T12:48:26.760Z,7.60
2018-05-31T12:50:54.202Z,7.23
2018-05-31T12:53:21.643Z,6.60
2018-05-31T12:55:49.099Z,8.03
2018-05-31T12:58:16.545Z,8.43
2018-05-31T13:00:43.992Z,7.50
2018-05-31T13:03:11.437Z,7.47
2018-05-31T13:05:39.720Z,7.17
2018-05-31T13:08:07.089Z,7.13
2018-05-31T13:10:35.307Z,7.87
2018-05-31T13:13:02.746Z,7.40
2018-05-31T13:15:30.206Z,7.30
2018-05-31T13:17:57.641Z,7.30
2018-05-31T13:20:25.083Z,7.23
2018-05-31T13:22:52.534Z,6.80
2018-05-31T13:25:20.785Z,7.63
2018-05-31T13:27:48.950Z,8.10
2018-05-31T13:30:17.146Z,7.83
2018-05-31T13:32:45.354Z,8.70
2018-05-31T13:35:12.801Z,9.33
2018-05-31T13:37:40.246Z,8.27
2018-05-31T13:40:07.690Z,9.47
2018-05-31T13:42:35.903Z,8.80
2018-05-31T13:45:03.337Z,8.33
2018-05-31T13:47:30.786Z,9.13
2018-05-31T13:49:58.226Z,8.43
2018-05-31T13:52:25.678Z,8.10
2018-05-31T13:54:53.112Z,8.83
2018-05-31T13:57:21.332Z,8.50
2018-05-31T13:59:49.541Z,6.47
2018-05-31T14:02:16.990Z,6.70
2018-05-31T14:04:44.434Z,5.77
2018-05-31T14:07:12.643Z,5.53
2018-05-31T14:09:40.845Z,5.43
2018-05-31T14:12:09.065Z,5.73
2018-05-31T14:14:36.506Z,6.43
2018-05-31T14:17:03.941Z,6.10
2018-05-31T14:19:31.384Z,5.53
2018-05-31T14:21:58.817Z,5.93
2018-05-31T14:24:26.263Z,5.97
2018-05-31T14:26:53.697Z,5.63
2018-05-31T14:29:21.146Z,5.47
2018-05-31T14:31:48.581Z,5.70
2018-05-31T14:34:16.030Z,5.80
2018-05-31T14:36:43.471Z,5.30
2018-05-31T14:39:10.910Z,5.67
2018-05-31T14:41:38.349Z,6.13
2018-05-31T14:44:06.572Z,5.90
2018-05-31T14:46:34.070Z,6.23
2018-05-31T14:49:01.517Z,6.37
2018-05-31T14:51:28.951Z,6.20
2018-05-31T14:53:56.387Z,7.20
2018-05-31T14:56:23.830Z,6.40
2018-05-31T14:58:51.275Z,6.50
2018-05-31T15:01:18.719Z,8.67
2018-05-31T15:03:46.918Z,7.17
2018-05-31T15:06:15.133Z,7.00
2018-05-31T15:08:42.576Z,6.23
2018-05-31T15:11:10.015Z,7.20
2018-05-31T15:13:37.449Z,6.20
2018-05-31T15:16:05.669Z,5.60
2018-05-31T15:18:33.106Z,4.90
2018-05-31T15:21:00.541Z,6.40
2018-05-31T15:23:27.981Z,5.60
2018-05-31T15:25:56.181Z,4.67
2018-05-31T15:28:24.399Z,5.07
2018-05-31T15:30:52.601Z,4.60
2018-05-31T15:33:20.041Z,4.60
2018-05-31T15:35:47.478Z,5.03
2018-05-31T15:38:14.921Z,6.20
2018-05-31T15:40:43.130Z,5.40
2018-05-31T15:43:11.343Z,5.20
2018-05-31T15:45:38.787Z,6.57
2018-05-31T15:48:06.239Z,5.73
2018-05-31T15:50:33.680Z,6.03
2018-05-31T15:53:01.888Z,6.10
2018-05-31T15:55:29.320Z,6.37
2018-05-31T15:57:56.762Z,6.40
2018-05-31T16:00:24.198Z,7.00
2018-05-31T16:02:52.419Z,5.97
2018-05-31T16:05:20.615Z,5.83
2018-05-31T16:07:48.827Z,7.37
2018-05-31T16:10:16.267Z,6.00
2018-05-31T16:12:43.714Z,6.40
2018-05-31T16:15:11.153Z,7.35
2018-05-31T16:17:39.371Z,5.93
2018-05-31T16:20:06.827Z,5.82
2018-05-31T16:22:35.046Z,5.90
2018-05-31T16:25:02.487Z,5.87
2018-05-31T16:27:29.930Z,5.60
2018-05-31T16:29:57.362Z,5.60
2018-05-31T16:32:25.583Z,6.60
2018-05-31T16:34:53.031Z,6.00
2018-05-31T16:37:20.486Z,5.82
2018-05-31T16:39:47.916Z,5.10
2018-05-31T16:47:10.101Z,5.50
2018-05-31T16:49:37.550Z,6.00
2018-05-31T16:52:05.755Z,5.70
2018-05-31T16:54:33.189Z,6.07
2018-05-31T16:57:00.656Z,5.68
2018-05-31T16:59:28.098Z,6.22
2018-05-31T17:01:55.557Z,6.03
2018-05-31T17:04:23.812Z,6.10
2018-05-31T17:06:51.253Z,6.25
2018-05-31T17:09:18.686Z,6.07
2018-05-31T17:11:46.129Z,6.30
2018-05-31T17:14:13.571Z,5.67
2018-05-31T17:16:41.782Z,7.10
2018-05-31T17:19:09.998Z,7.00
2018-05-31T17:21:37.426Z,5.93
2018-05-31T17:24:04.871Z,5.87
2018-05-31T17:26:32.311Z,6.70
2018-05-31T17:29:00.524Z,9.27
2018-05-31T17:31:28.738Z,6.75
2018-05-31T17:33:56.190Z,6.10
2018-05-31T17:36:24.390Z,5.75
2018-05-31T17:38:52.603Z,6.90
2018-05-31T17:41:20.051Z,6.25
2018-05-31T17:43:47.515Z,6.03
2018-05-31T17:46:14.943Z,6.70
2018-05-31T17:48:43.161Z,6.57
2018-05-31T17:51:10.602Z,6.68
2018-05-31T17:53:38.818Z,6.60
2018-05-31T17:56:07.019Z,6.25
2018-05-31T17:58:34.462Z,6.80
2018-05-31T18:01:01.902Z,6.93
2018-05-31T18:03:29.346Z,6.97
2018-05-31T18:05:56.779Z,6.90
2018-05-31T18:08:24.226Z,7.00
2018-05-31T18:10:52.442Z,7.57
2018-05-31T18:13:19.899Z,7.45
2018-05-31T18:15:48.114Z,7.97
2018-05-31T18:18:15.561Z,7.22
2018-05-31T18:20:43.005Z,7.25
2018-05-31T18:23:10.463Z,7.53
2018-05-31T18:25:37.915Z,7.15
2018-05-31T18:28:06.126Z,7.07
2018-05-31T18:30:33.566Z,7.35
2018-05-31T18:33:01.006Z,6.75
2018-05-31T18:35:28.450Z,7.20
2018-05-31T18:37:56.662Z,7.30
2018-05-31T18:40:24.869Z,7.75
2018-05-31T18:42:52.321Z,7.00
2018-05-31T18:45:19.775Z,7.00
2018-05-31T18:47:47.231Z,7.20
2018-05-31T18:50:14.682Z,7.10
2018-05-31T18:52:42.899Z,6.15
2018-05-31T18:55:10.338Z,6.50
2018-05-31T18:57:37.779Z,5.80
2018-05-31T19:00:05.220Z,6.30
2018-05-31T19:02:33.428Z,5.57
2018-05-31T19:05:00.867Z,5.22
2018-05-31T19:07:28.312Z,5.15
2018-05-31T19:09:55.749Z,5.00
2018-05-31T19:12:28.795Z,4.80
2018-05-31T19:14:56.235Z,4.63
2018-05-31T19:49:36.471Z,10.00
2018-05-31T19:52:09.523Z,9.13
2018-05-31T19:54:36.978Z,9.00
2018-05-31T19:57:04.413Z,9.67
2018-05-31T19:59:37.631Z,9.13
2018-05-31T20:05:07.859Z,8.83
2018-05-31T20:07:35.356Z,9.87
2018-05-31T20:10:02.750Z,10.30
2018-05-31T20:12:30.251Z,10.10
2018-05-31T20:14:57.642Z,8.50
2018-05-31T20:17:25.083Z,8.57
2018-05-31T20:19:52.534Z,9.33
2018-05-31T20:22:20.734Z,7.90
2018-05-31T20:24:48.966Z,7.60
